sensor_id;sensor_type;location;lat;lon;timestamp;P1;durP1;ratioP1;P2;durP2;ratioP2
40849;SDS011;26571;41.610;25.380;2023-12-20T00:01:16;44.00;;;12.45;;
40849;SDS011;26571;41.610;25.380;2023-12-20T00:03:42;37.40;;;9.93;;
40849;SDS011;26571;41.610;25.380;2023-12-20T00:06:07;70.47;;;11.68;;
40849;SDS011;26571;41.610;25.380;2023-12-20T00:08:33;52.38;;;9.65;;
40849;SDS011;26571;41.610;25.380;2023-12-20T00:10:58;254.88;;;18.63;;
40849;SDS011;26571;41.610;25.380;2023-12-20T00:13:24;133.43;;;12.60;;
40849;SDS011;26571;41.610;25.380;2023-12-20T00:15:49;136.98;;;15.25;;
40849;SDS011;26571;41.610;25.380;2023-12-20T00:18:15;319.05;;;22.92;;
40849;SDS011;26571;41.610;25.380;2023-12-20T00:20:40;72.32;;;12.02;;
40849;SDS011;26571;41.610;25.380;2023-12-20T00:23:06;84.80;;;13.30;;
40849;SDS011;26571;41.610;25.380;2023-12-20T00:25:33;69.50;;;12.20;;
40849;SDS011;26571;41.610;25.380;2023-12-20T00:27:59;17.85;;;7.90;;
40849;SDS011;26571;41.610;25.380;2023-12-20T00:30:25;27.73;;;8.60;;
40849;SDS011;26571;41.610;25.380;2023-12-20T00:32:50;89.72;;;12.15;;
40849;SDS011;26571;41.610;25.380;2023-12-20T00:35:16;64.50;;;13.57;;
40849;SDS011;26571;41.610;25.380;2023-12-20T00:37:42;55.85;;;11.82;;
40849;SDS011;26571;41.610;25.380;2023-12-20T00:40:08;61.70;;;12.32;;
40849;SDS011;26571;41.610;25.380;2023-12-20T00:42:34;37.53;;;10.02;;
40849;SDS011;26571;41.610;25.380;2023-12-20T00:45:01;41.83;;;7.82;;
40849;SDS011;26571;41.610;25.380;2023-12-20T00:47:27;13.00;;;9.70;;
40849;SDS011;26571;41.610;25.380;2023-12-20T00:49:52;28.42;;;8.18;;
40849;SDS011;26571;41.610;25.380;2023-12-20T00:52:18;11.82;;;8.43;;
40849;SDS011;26571;41.610;25.380;2023-12-20T00:54:44;9.38;;;7.40;;
40849;SDS011;26571;41.610;25.380;2023-12-20T00:57:09;12.40;;;8.75;;
40849;SDS011;26571;41.610;25.380;2023-12-20T00:59:35;22.90;;;9.30;;
40849;SDS011;26571;41.610;25.380;2023-12-20T01:02:01;25.50;;;9.05;;
40849;SDS011;26571;41.610;25.380;2023-12-20T01:04:26;28.42;;;9.13;;
40849;SDS011;26571;41.610;25.380;2023-12-20T01:06:52;15.18;;;8.50;;
40849;SDS011;26571;41.610;25.380;2023-12-20T01:09:18;15.00;;;9.85;;
40849;SDS011;26571;41.610;25.380;2023-12-20T01:11:44;8.68;;;7.10;;
40849;SDS011;26571;41.610;25.380;2023-12-20T01:14:11;12.85;;;7.35;;
40849;SDS011;26571;41.610;25.380;2023-12-20T01:16:37;6.72;;;5.22;;
40849;SDS011;26571;41.610;25.380;2023-12-20T01:19:03;14.25;;;6.10;;
40849;SDS011;26571;41.610;25.380;2023-12-20T01:21:28;11.18;;;6.72;;
40849;SDS011;26571;41.610;25.380;2023-12-20T01:23:53;11.93;;;8.68;;
40849;SDS011;26571;41.610;25.380;2023-12-20T01:26:19;36.05;;;7.55;;
40849;SDS011;26571;41.610;25.380;2023-12-20T01:28:44;43.28;;;8.55;;
40849;SDS011;26571;41.610;25.380;2023-12-20T01:31:10;43.67;;;9.85;;
40849;SDS011;26571;41.610;25.380;2023-12-20T01:33:35;45.17;;;9.88;;
40849;SDS011;26571;41.610;25.380;2023-12-20T01:36:01;98.65;;;11.82;;
40849;SDS011;26571;41.610;25.380;2023-12-20T01:38:26;116.72;;;13.02;;
40849;SDS011;26571;41.610;25.380;2023-12-20T01:40:52;82.15;;;9.75;;
40849;SDS011;26571;41.610;25.380;2023-12-20T01:43:17;37.00;;;9.32;;
40849;SDS011;26571;41.610;25.380;2023-12-20T01:45:43;41.17;;;8.95;;
40849;SDS011;26571;41.610;25.380;2023-12-20T01:48:08;27.05;;;8.75;;
40849;SDS011;26571;41.610;25.380;2023-12-20T01:53:02;50.25;;;7.95;;
40849;SDS011;26571;41.610;25.380;2023-12-20T01:55:31;22.77;;;6.93;;
40849;SDS011;26571;41.610;25.380;2023-12-20T01:57:58;37.90;;;8.13;;
40849;SDS011;26571;41.610;25.380;2023-12-20T02:00:25;16.57;;;7.17;;
40849;SDS011;26571;41.610;25.380;2023-12-20T02:02:53;28.60;;;8.23;;
40849;SDS011;26571;41.610;25.380;2023-12-20T02:05:20;61.08;;;9.75;;
40849;SDS011;26571;41.610;25.380;2023-12-20T02:07:46;37.10;;;7.70;;
40849;SDS011;26571;41.610;25.380;2023-12-20T02:10:12;13.52;;;6.28;;
40849;SDS011;26571;41.610;25.380;2023-12-20T02:12:38;9.82;;;5.70;;
40849;SDS011;26571;41.610;25.380;2023-12-20T02:15:03;6.72;;;5.10;;
40849;SDS011;26571;41.610;25.380;2023-12-20T02:17:30;42.60;;;8.07;;
40849;SDS011;26571;41.610;25.380;2023-12-20T02:19:57;13.15;;;6.00;;
40849;SDS011;26571;41.610;25.380;2023-12-20T02:22:22;20.63;;;6.53;;
40849;SDS011;26571;41.610;25.380;2023-12-20T02:24:48;14.70;;;7.18;;
40849;SDS011;26571;41.610;25.380;2023-12-20T02:27:13;15.98;;;5.53;;
40849;SDS011;26571;41.610;25.380;2023-12-20T02:29:43;20.42;;;6.32;;
40849;SDS011;26571;41.610;25.380;2023-12-20T02:32:08;51.38;;;9.73;;
40849;SDS011;26571;41.610;25.380;2023-12-20T02:34:34;36.95;;;6.80;;
40849;SDS011;26571;41.610;25.380;2023-12-20T02:36:59;37.35;;;7.22;;
40849;SDS011;26571;41.610;25.380;2023-12-20T02:39:25;53.95;;;8.27;;
40849;SDS011;26571;41.610;25.380;2023-12-20T02:41:50;30.55;;;6.72;;
40849;SDS011;26571;41.610;25.380;2023-12-20T02:44:16;32.90;;;7.45;;
40849;SDS011;26571;41.610;25.380;2023-12-20T02:46:41;21.70;;;6.90;;
40849;SDS011;26571;41.610;25.380;2023-12-20T02:49:07;52.67;;;8.40;;
40849;SDS011;26571;41.610;25.380;2023-12-20T02:51:32;39.78;;;7.07;;
40849;SDS011;26571;41.610;25.380;2023-12-20T02:53:58;72.10;;;11.15;;
40849;SDS011;26571;41.610;25.380;2023-12-20T02:56:23;91.47;;;8.65;;
40849;SDS011;26571;41.610;25.380;2023-12-20T02:58:49;27.40;;;5.90;;
40849;SDS011;26571;41.610;25.380;2023-12-20T03:01:14;62.78;;;9.18;;
40849;SDS011;26571;41.610;25.380;2023-12-20T03:03:40;21.10;;;6.70;;
40849;SDS011;26571;41.610;25.380;2023-12-20T03:06:05;50.95;;;7.38;;
40849;SDS011;26571;41.610;25.380;2023-12-20T03:08:31;43.53;;;7.65;;
40849;SDS011;26571;41.610;25.380;2023-12-20T03:10:56;42.30;;;5.35;;
40849;SDS011;26571;41.610;25.380;2023-12-20T03:13:21;21.17;;;7.03;;
40849;SDS011;26571;41.610;25.380;2023-12-20T03:15:47;16.73;;;5.43;;
40849;SDS011;26571;41.610;25.380;2023-12-20T03:18:12;24.63;;;7.35;;
40849;SDS011;26571;41.610;25.380;2023-12-20T03:20:38;38.33;;;9.57;;
40849;SDS011;26571;41.610;25.380;2023-12-20T03:23:03;54.40;;;12.77;;
40849;SDS011;26571;41.610;25.380;2023-12-20T03:25:29;62.80;;;12.25;;
40849;SDS011;26571;41.610;25.380;2023-12-20T03:27:55;72.25;;;11.25;;
40849;SDS011;26571;41.610;25.380;2023-12-20T03:30:20;30.75;;;12.00;;
40849;SDS011;26571;41.610;25.380;2023-12-20T03:32:46;61.25;;;12.30;;
40849;SDS011;26571;41.610;25.380;2023-12-20T03:35:12;55.72;;;11.73;;
40849;SDS011;26571;41.610;25.380;2023-12-20T03:37:38;34.15;;;8.73;;
40849;SDS011;26571;41.610;25.380;2023-12-20T03:40:03;47.22;;;9.65;;
40849;SDS011;26571;41.610;25.380;2023-12-20T03:42:29;36.83;;;6.90;;
40849;SDS011;26571;41.610;25.380;2023-12-20T03:44:54;80.47;;;8.93;;
40849;SDS011;26571;41.610;25.380;2023-12-20T03:47:20;11.30;;;7.03;;
40849;SDS011;26571;41.610;25.380;2023-12-20T03:49:45;16.67;;;9.02;;
40849;SDS011;26571;41.610;25.380;2023-12-20T03:52:11;21.50;;;7.10;;
40849;SDS011;26571;41.610;25.380;2023-12-20T03:54:37;15.35;;;6.80;;
40849;SDS011;26571;41.610;25.380;2023-12-20T03:57:03;34.80;;;7.85;;
40849;SDS011;26571;41.610;25.380;2023-12-20T03:59:29;14.90;;;6.43;;
40849;SDS011;26571;41.610;25.380;2023-12-20T04:01:55;15.30;;;5.38;;
40849;SDS011;26571;41.610;25.380;2023-12-20T04:04:20;13.10;;;5.28;;
40849;SDS011;26571;41.610;25.380;2023-12-20T04:06:46;32.03;;;6.97;;
40849;SDS011;26571;41.610;25.380;2023-12-20T04:09:11;6.90;;;4.45;;
40849;SDS011;26571;41.610;25.380;2023-12-20T04:11:37;6.38;;;4.97;;
40849;SDS011;26571;41.610;25.380;2023-12-20T04:14:02;5.05;;;4.75;;
40849;SDS011;26571;41.610;25.380;2023-12-20T04:16:30;5.13;;;4.72;;
40849;SDS011;26571;41.610;25.380;2023-12-20T04:18:55;6.53;;;6.10;;
40849;SDS011;26571;41.610;25.380;2023-12-20T04:21:21;6.13;;;5.63;;
40849;SDS011;26571;41.610;25.380;2023-12-20T04:23:46;7.50;;;6.75;;
40849;SDS011;26571;41.610;25.380;2023-12-20T04:26:12;10.30;;;8.32;;
40849;SDS011;26571;41.610;25.380;2023-12-20T04:28:37;15.50;;;8.98;;
40849;SDS011;26571;41.610;25.380;2023-12-20T04:31:03;8.98;;;6.97;;
40849;SDS011;26571;41.610;25.380;2023-12-20T04:33:28;11.38;;;6.10;;
40849;SDS011;26571;41.610;25.380;2023-12-20T04:35:54;11.05;;;7.60;;
40849;SDS011;26571;41.610;25.380;2023-12-20T04:38:20;16.08;;;6.35;;
40849;SDS011;26571;41.610;25.380;2023-12-20T04:40:45;18.35;;;6.15;;
40849;SDS011;26571;41.610;25.380;2023-12-20T04:43:11;21.65;;;6.75;;
40849;SDS011;26571;41.610;25.380;2023-12-20T04:45:36;22.30;;;6.25;;
40849;SDS011;26571;41.610;25.380;2023-12-20T04:48:02;12.80;;;7.15;;
40849;SDS011;26571;41.610;25.380;2023-12-20T04:50:27;32.63;;;8.43;;
40849;SDS011;26571;41.610;25.380;2023-12-20T04:52:53;60.85;;;12.18;;
40849;SDS011;26571;41.610;25.380;2023-12-20T04:55:19;20.75;;;8.93;;
40849;SDS011;26571;41.610;25.380;2023-12-20T04:57:45;62.17;;;10.88;;
40849;SDS011;26571;41.610;25.380;2023-12-20T05:00:10;44.53;;;8.10;;
40849;SDS011;26571;41.610;25.380;2023-12-20T05:02:37;23.30;;;7.37;;
40849;SDS011;26571;41.610;25.380;2023-12-20T05:05:03;37.08;;;15.38;;
40849;SDS011;26571;41.610;25.380;2023-12-20T05:07:28;28.65;;;16.98;;
40849;SDS011;26571;41.610;25.380;2023-12-20T05:09:54;19.52;;;14.50;;
40849;SDS011;26571;41.610;25.380;2023-12-20T05:12:19;25.75;;;18.77;;
40849;SDS011;26571;41.610;25.380;2023-12-20T05:14:45;10.73;;;9.38;;
40849;SDS011;26571;41.610;25.380;2023-12-20T05:17:11;9.30;;;7.43;;
40849;SDS011;26571;41.610;25.380;2023-12-20T05:19:37;34.67;;;8.38;;
40849;SDS011;26571;41.610;25.380;2023-12-20T05:22:02;30.40;;;10.13;;
40849;SDS011;26571;41.610;25.380;2023-12-20T05:24:28;26.98;;;10.55;;
40849;SDS011;26571;41.610;25.380;2023-12-20T05:26:53;74.97;;;14.77;;
40849;SDS011;26571;41.610;25.380;2023-12-20T05:29:19;109.57;;;15.80;;
40849;SDS011;26571;41.610;25.380;2023-12-20T05:31:44;87.07;;;12.73;;
40849;SDS011;26571;41.610;25.380;2023-12-20T05:34:10;135.38;;;16.85;;
40849;SDS011;26571;41.610;25.380;2023-12-20T05:36:36;194.68;;;19.40;;
40849;SDS011;26571;41.610;25.380;2023-12-20T05:39:01;86.78;;;12.52;;
40849;SDS011;26571;41.610;25.380;2023-12-20T05:41:30;80.05;;;12.60;;
40849;SDS011;26571;41.610;25.380;2023-12-20T05:43:55;34.50;;;11.63;;
40849;SDS011;26571;41.610;25.380;2023-12-20T05:46:23;46.65;;;12.05;;
40849;SDS011;26571;41.610;25.380;2023-12-20T05:48:49;15.55;;;7.65;;
40849;SDS011;26571;41.610;25.380;2023-12-20T05:51:14;19.05;;;7.07;;
40849;SDS011;26571;41.610;25.380;2023-12-20T05:53:40;21.50;;;7.93;;
40849;SDS011;26571;41.610;25.380;2023-12-20T05:56:06;14.13;;;8.05;;
40849;SDS011;26571;41.610;25.380;2023-12-20T05:58:32;18.55;;;9.40;;
40849;SDS011;26571;41.610;25.380;2023-12-20T06:00:58;14.13;;;8.00;;
40849;SDS011;26571;41.610;25.380;2023-12-20T06:03:23;13.88;;;10.25;;
40849;SDS011;26571;41.610;25.380;2023-12-20T06:05:48;20.70;;;10.55;;
40849;SDS011;26571;41.610;25.380;2023-12-20T06:08:14;18.42;;;7.50;;
40849;SDS011;26571;41.610;25.380;2023-12-20T06:10:39;17.85;;;8.23;;
40849;SDS011;26571;41.610;25.380;2023-12-20T06:13:05;8.35;;;7.05;;
40849;SDS011;26571;41.610;25.380;2023-12-20T06:15:31;14.65;;;9.93;;
40849;SDS011;26571;41.610;25.380;2023-12-20T06:17:57;9.15;;;7.93;;
40849;SDS011;26571;41.610;25.380;2023-12-20T06:20:23;9.88;;;8.93;;
40849;SDS011;26571;41.610;25.380;2023-12-20T06:22:48;8.80;;;7.47;;
40849;SDS011;26571;41.610;25.380;2023-12-20T06:25:14;8.27;;;7.47;;
40849;SDS011;26571;41.610;25.380;2023-12-20T06:27:39;7.55;;;6.53;;
40849;SDS011;26571;41.610;25.380;2023-12-20T06:30:06;12.73;;;10.60;;
40849;SDS011;26571;41.610;25.380;2023-12-20T06:32:34;20.13;;;13.02;;
40849;SDS011;26571;41.610;25.380;2023-12-20T06:35:00;10.77;;;8.43;;
40849;SDS011;26571;41.610;25.380;2023-12-20T06:37:26;8.93;;;7.35;;
40849;SDS011;26571;41.610;25.380;2023-12-20T06:39:51;6.88;;;6.22;;
40849;SDS011;26571;41.610;25.380;2023-12-20T06:42:17;6.68;;;4.43;;
40849;SDS011;26571;41.610;25.380;2023-12-20T06:44:42;15.88;;;14.50;;
40849;SDS011;26571;41.610;25.380;2023-12-20T06:47:08;6.75;;;5.60;;
40849;SDS011;26571;41.610;25.380;2023-12-20T06:49:33;5.57;;;4.95;;
40849;SDS011;26571;41.610;25.380;2023-12-20T06:51:59;5.20;;;4.70;;
40849;SDS011;26571;41.610;25.380;2023-12-20T06:54:24;5.43;;;4.93;;
40849;SDS011;26571;41.610;25.380;2023-12-20T06:56:50;14.63;;;10.32;;
40849;SDS011;26571;41.610;25.380;2023-12-20T06:59:15;6.30;;;5.68;;
40849;SDS011;26571;41.610;25.380;2023-12-20T07:01:41;8.35;;;6.53;;
40849;SDS011;26571;41.610;25.380;2023-12-20T07:04:06;7.07;;;6.22;;
40849;SDS011;26571;41.610;25.380;2023-12-20T07:06:32;7.43;;;5.63;;
40849;SDS011;26571;41.610;25.380;2023-12-20T07:08:57;13.07;;;8.38;;
40849;SDS011;26571;41.610;25.380;2023-12-20T07:11:23;8.07;;;5.75;;
40849;SDS011;26571;41.610;25.380;2023-12-20T07:13:49;8.70;;;6.13;;
40849;SDS011;26571;41.610;25.380;2023-12-20T07:16:15;9.50;;;6.15;;
40849;SDS011;26571;41.610;25.380;2023-12-20T07:18:40;8.65;;;6.95;;
40849;SDS011;26571;41.610;25.380;2023-12-20T07:21:06;21.70;;;16.13;;
40849;SDS011;26571;41.610;25.380;2023-12-20T07:23:33;36.28;;;23.67;;
40849;SDS011;26571;41.610;25.380;2023-12-20T07:25:58;18.23;;;13.02;;
40849;SDS011;26571;41.610;25.380;2023-12-20T07:28:24;15.77;;;10.95;;
40849;SDS011;26571;41.610;25.380;2023-12-20T07:30:50;14.95;;;10.05;;
40849;SDS011;26571;41.610;25.380;2023-12-20T07:33:15;11.48;;;10.32;;
40849;SDS011;26571;41.610;25.380;2023-12-20T07:35:41;19.80;;;11.95;;
40849;SDS011;26571;41.610;25.380;2023-12-20T07:38:06;8.43;;;7.63;;
40849;SDS011;26571;41.610;25.380;2023-12-20T07:40:32;10.45;;;8.25;;
40849;SDS011;26571;41.610;25.380;2023-12-20T07:42:57;14.77;;;10.65;;
40849;SDS011;26571;41.610;25.380;2023-12-20T07:45:23;31.05;;;13.52;;
40849;SDS011;26571;41.610;25.380;2023-12-20T07:47:48;34.60;;;11.18;;
40849;SDS011;26571;41.610;25.380;2023-12-20T07:50:15;19.67;;;13.10;;
40849;SDS011;26571;41.610;25.380;2023-12-20T07:52:41;28.83;;;12.60;;
40849;SDS011;26571;41.610;25.380;2023-12-20T07:55:06;21.05;;;9.75;;
40849;SDS011;26571;41.610;25.380;2023-12-20T07:57:32;43.25;;;11.80;;
40849;SDS011;26571;41.610;25.380;2023-12-20T07:59:58;23.90;;;11.00;;
40849;SDS011;26571;41.610;25.380;2023-12-20T08:02:23;38.60;;;13.65;;
40849;SDS011;26571;41.610;25.380;2023-12-20T08:04:49;21.27;;;10.73;;
40849;SDS011;26571;41.610;25.380;2023-12-20T08:07:14;41.75;;;13.70;;
40849;SDS011;26571;41.610;25.380;2023-12-20T08:09:39;86.70;;;15.40;;
40849;SDS011;26571;41.610;25.380;2023-12-20T08:12:05;108.18;;;16.63;;
40849;SDS011;26571;41.610;25.380;2023-12-20T08:14:31;51.38;;;18.73;;
40849;SDS011;26571;41.610;25.380;2023-12-20T08:16:56;59.67;;;20.52;;
40849;SDS011;26571;41.610;25.380;2023-12-20T08:19:22;34.17;;;19.77;;
40849;SDS011;26571;41.610;25.380;2023-12-20T08:21:47;35.58;;;18.85;;
40849;SDS011;26571;41.610;25.380;2023-12-20T08:24:13;45.95;;;20.52;;
40849;SDS011;26571;41.610;25.380;2023-12-20T08:26:38;71.78;;;25.60;;
40849;SDS011;26571;41.610;25.380;2023-12-20T08:29:04;60.00;;;22.58;;
40849;SDS011;26571;41.610;25.380;2023-12-20T08:31:29;87.07;;;25.20;;
40849;SDS011;26571;41.610;25.380;2023-12-20T08:33:55;41.13;;;22.15;;
40849;SDS011;26571;41.610;25.380;2023-12-20T08:36:20;38.40;;;23.80;;
40849;SDS011;26571;41.610;25.380;2023-12-20T08:38:49;46.42;;;27.77;;
40849;SDS011;26571;41.610;25.380;2023-12-20T08:41:16;49.83;;;29.00;;
40849;SDS011;26571;41.610;25.380;2023-12-20T08:43:42;56.40;;;28.77;;
40849;SDS011;26571;41.610;25.380;2023-12-20T08:46:08;63.55;;;31.38;;
40849;SDS011;26571;41.610;25.380;2023-12-20T08:48:36;73.18;;;33.55;;
40849;SDS011;26571;41.610;25.380;2023-12-20T08:51:02;94.47;;;46.00;;
40849;SDS011;26571;41.610;25.380;2023-12-20T08:53:29;81.32;;;38.63;;
40849;SDS011;26571;41.610;25.380;2023-12-20T08:55:54;78.40;;;41.55;;
40849;SDS011;26571;41.610;25.380;2023-12-20T08:58:20;79.72;;;39.70;;
40849;SDS011;26571;41.610;25.380;2023-12-20T09:00:45;70.75;;;29.50;;
40849;SDS011;26571;41.610;25.380;2023-12-20T09:03:11;75.40;;;33.08;;
40849;SDS011;26571;41.610;25.380;2023-12-20T09:05:36;68.90;;;34.38;;
40849;SDS011;26571;41.610;25.380;2023-12-20T09:08:02;92.57;;;36.25;;
40849;SDS011;26571;41.610;25.380;2023-12-20T09:10:27;91.47;;;42.70;;
40849;SDS011;26571;41.610;25.380;2023-12-20T09:12:53;60.92;;;36.35;;
40849;SDS011;26571;41.610;25.380;2023-12-20T09:15:23;64.85;;;38.78;;
40849;SDS011;26571;41.610;25.380;2023-12-20T09:17:51;70.30;;;36.00;;
40849;SDS011;26571;41.610;25.380;2023-12-20T09:20:17;71.07;;;38.67;;
40849;SDS011;26571;41.610;25.380;2023-12-20T09:22:42;73.78;;;39.70;;
40849;SDS011;26571;41.610;25.380;2023-12-20T09:25:09;65.05;;;39.10;;
40849;SDS011;26571;41.610;25.380;2023-12-20T09:30:01;65.43;;;38.90;;
40849;SDS011;26571;41.610;25.380;2023-12-20T09:32:27;57.65;;;34.72;;
40849;SDS011;26571;41.610;25.380;2023-12-20T09:34:52;42.95;;;25.95;;
40849;SDS011;26571;41.610;25.380;2023-12-20T09:37:18;44.58;;;26.42;;
40849;SDS011;26571;41.610;25.380;2023-12-20T09:39:43;56.80;;;33.88;;
40849;SDS011;26571;41.610;25.380;2023-12-20T09:42:09;51.53;;;32.72;;
40849;SDS011;26571;41.610;25.380;2023-12-20T09:44:37;47.03;;;30.75;;
40849;SDS011;26571;41.610;25.380;2023-12-20T09:47:06;44.42;;;29.88;;
40849;SDS011;26571;41.610;25.380;2023-12-20T09:49:32;42.65;;;30.38;;
40849;SDS011;26571;41.610;25.380;2023-12-20T09:51:58;33.78;;;24.80;;
40849;SDS011;26571;41.610;25.380;2023-12-20T09:54:25;42.15;;;26.95;;
40849;SDS011;26571;41.610;25.380;2023-12-20T09:56:53;34.00;;;26.48;;
40849;SDS011;26571;41.610;25.380;2023-12-20T09:59:19;42.40;;;29.90;;
40849;SDS011;26571;41.610;25.380;2023-12-20T10:01:44;39.92;;;27.80;;
40849;SDS011;26571;41.610;25.380;2023-12-20T10:04:11;45.47;;;30.85;;
40849;SDS011;26571;41.610;25.380;2023-12-20T10:06:43;46.85;;;31.25;;
40849;SDS011;26571;41.610;25.380;2023-12-20T10:09:10;38.95;;;29.90;;
40849;SDS011;26571;41.610;25.380;2023-12-20T10:11:36;39.53;;;27.40;;
40849;SDS011;26571;41.610;25.380;2023-12-20T10:14:10;31.40;;;21.95;;
40849;SDS011;26571;41.610;25.380;2023-12-20T10:16:36;29.85;;;19.17;;
40849;SDS011;26571;41.610;25.380;2023-12-20T10:19:01;33.80;;;21.33;;
40849;SDS011;26571;41.610;25.380;2023-12-20T10:21:27;26.50;;;19.90;;
40849;SDS011;26571;41.610;25.380;2023-12-20T10:23:56;27.52;;;19.60;;
40849;SDS011;26571;41.610;25.380;2023-12-20T10:26:23;30.63;;;21.50;;
40849;SDS011;26571;41.610;25.380;2023-12-20T10:28:50;30.85;;;22.25;;
40849;SDS011;26571;41.610;25.380;2023-12-20T10:31:33;28.10;;;21.40;;
40849;SDS011;26571;41.610;25.380;2023-12-20T10:34:00;27.77;;;19.40;;
40849;SDS011;26571;41.610;25.380;2023-12-20T10:36:27;23.38;;;18.67;;
40849;SDS011;26571;41.610;25.380;2023-12-20T10:41:24;22.13;;;16.42;;
40849;SDS011;26571;41.610;25.380;2023-12-20T10:44:00;25.35;;;17.63;;
40849;SDS011;26571;41.610;25.380;2023-12-20T10:46:32;23.10;;;17.55;;
40849;SDS011;26571;41.610;25.380;2023-12-20T10:48:58;20.20;;;15.60;;
40849;SDS011;26571;41.610;25.380;2023-12-20T10:51:27;21.85;;;16.17;;
40849;SDS011;26571;41.610;25.380;2023-12-20T10:56:20;20.02;;;17.17;;
40849;SDS011;26571;41.610;25.380;2023-12-20T10:58:48;22.85;;;18.73;;
40849;SDS011;26571;41.610;25.380;2023-12-20T11:01:15;23.52;;;19.25;;
40849;SDS011;26571;41.610;25.380;2023-12-20T11:03:44;25.33;;;18.00;;
40849;SDS011;26571;41.610;25.380;2023-12-20T11:08:54;19.33;;;14.70;;
40849;SDS011;26571;41.610;25.380;2023-12-20T11:11:35;20.17;;;15.82;;
40849;SDS011;26571;41.610;25.380;2023-12-20T11:14:21;20.02;;;16.13;;
40849;SDS011;26571;41.610;25.380;2023-12-20T11:16:50;17.50;;;14.23;;
40849;SDS011;26571;41.610;25.380;2023-12-20T11:19:16;12.88;;;11.57;;
40849;SDS011;26571;41.610;25.380;2023-12-20T11:21:42;12.52;;;11.27;;
40849;SDS011;26571;41.610;25.380;2023-12-20T11:24:07;12.00;;;10.35;;
40849;SDS011;26571;41.610;25.380;2023-12-20T11:26:33;11.02;;;9.50;;
40849;SDS011;26571;41.610;25.380;2023-12-20T11:31:57;25.25;;;14.63;;
40849;SDS011;26571;41.610;25.380;2023-12-20T11:34:22;14.82;;;11.48;;
40849;SDS011;26571;41.610;25.380;2023-12-20T11:36:59;11.57;;;10.45;;
40849;SDS011;26571;41.610;25.380;2023-12-20T11:39:26;2.30;;;1.65;;
40849;SDS011;26571;41.610;25.380;2023-12-20T11:41:54;2.22;;;1.85;;
40849;SDS011;26571;41.610;25.380;2023-12-20T11:44:21;7.95;;;7.15;;
40849;SDS011;26571;41.610;25.380;2023-12-20T11:46:47;8.20;;;6.07;;
40849;SDS011;26571;41.610;25.380;2023-12-20T11:49:12;3.17;;;2.47;;
40849;SDS011;26571;41.610;25.380;2023-12-20T11:51:41;2.55;;;2.35;;
40849;SDS011;26571;41.610;25.380;2023-12-20T11:54:07;1.10;;;1.08;;
40849;SDS011;26571;41.610;25.380;2023-12-20T11:56:35;0.60;;;0.60;;
40849;SDS011;26571;41.610;25.380;2023-12-20T11:59:01;0.63;;;0.60;;
40849;SDS011;26571;41.610;25.380;2023-12-20T12:01:26;1.85;;;0.68;;
40849;SDS011;26571;41.610;25.380;2023-12-20T12:04:02;3.63;;;1.48;;
40849;SDS011;26571;41.610;25.380;2023-12-20T12:06:30;0.50;;;0.50;;
40849;SDS011;26571;41.610;25.380;2023-12-20T12:08:57;0.70;;;0.60;;
40849;SDS011;26571;41.610;25.380;2023-12-20T12:11:22;1.63;;;0.63;;
40849;SDS011;26571;41.610;25.380;2023-12-20T12:13:48;1.27;;;1.05;;
40849;SDS011;26571;41.610;25.380;2023-12-20T12:16:20;2.47;;;0.52;;
40849;SDS011;26571;41.610;25.380;2023-12-20T12:18:46;0.40;;;0.40;;
40849;SDS011;26571;41.610;25.380;2023-12-20T12:21:20;1.83;;;0.73;;
40849;SDS011;26571;41.610;25.380;2023-12-20T12:23:46;0.95;;;0.52;;
40849;SDS011;26571;41.610;25.380;2023-12-20T12:26:12;3.00;;;0.88;;
40849;SDS011;26571;41.610;25.380;2023-12-20T12:28:41;1.35;;;0.50;;
40849;SDS011;26571;41.610;25.380;2023-12-20T12:31:07;7.35;;;3.28;;
40849;SDS011;26571;41.610;25.380;2023-12-20T12:33:34;4.18;;;3.80;;
40849;SDS011;26571;41.610;25.380;2023-12-20T12:36:03;19.77;;;14.90;;
40849;SDS011;26571;41.610;25.380;2023-12-20T12:38:30;1.70;;;1.20;;
40849;SDS011;26571;41.610;25.380;2023-12-20T12:40:56;1.08;;;0.60;;
40849;SDS011;26571;41.610;25.380;2023-12-20T12:43:21;2.75;;;2.33;;
40849;SDS011;26571;41.610;25.380;2023-12-20T12:45:48;3.63;;;1.73;;
40849;SDS011;26571;41.610;25.380;2023-12-20T12:48:14;51.50;;;32.65;;
40849;SDS011;26571;41.610;25.380;2023-12-20T12:50:39;9.15;;;5.93;;
40849;SDS011;26571;41.610;25.380;2023-12-20T12:53:05;13.93;;;11.00;;
40849;SDS011;26571;41.610;25.380;2023-12-20T12:55:31;8.13;;;5.18;;
40849;SDS011;26571;41.610;25.380;2023-12-20T12:57:56;12.43;;;6.93;;
40849;SDS011;26571;41.610;25.380;2023-12-20T13:00:22;4.95;;;3.42;;
40849;SDS011;26571;41.610;25.380;2023-12-20T13:02:47;2.88;;;2.25;;
40849;SDS011;26571;41.610;25.380;2023-12-20T13:05:13;12.75;;;10.20;;
40849;SDS011;26571;41.610;25.380;2023-12-20T13:07:38;1.95;;;1.85;;
40849;SDS011;26571;41.610;25.380;2023-12-20T13:10:04;2.85;;;2.53;;
40849;SDS011;26571;41.610;25.380;2023-12-20T13:12:31;1.85;;;1.75;;
40849;SDS011;26571;41.610;25.380;2023-12-20T13:14:57;3.95;;;2.75;;
40849;SDS011;26571;41.610;25.380;2023-12-20T13:17:22;3.90;;;3.30;;
40849;SDS011;26571;41.610;25.380;2023-12-20T13:19:48;6.00;;;4.95;;
40849;SDS011;26571;41.610;25.380;2023-12-20T13:22:14;3.83;;;2.45;;
40849;SDS011;26571;41.610;25.380;2023-12-20T13:24:40;1.27;;;1.00;;
40849;SDS011;26571;41.610;25.380;2023-12-20T13:27:06;9.23;;;7.65;;
40849;SDS011;26571;41.610;25.380;2023-12-20T13:29:31;10.00;;;6.45;;
40849;SDS011;26571;41.610;25.380;2023-12-20T13:31:57;3.40;;;2.67;;
40849;SDS011;26571;41.610;25.380;2023-12-20T13:34:23;12.82;;;10.02;;
40849;SDS011;26571;41.610;25.380;2023-12-20T13:36:48;0.57;;;0.52;;
40849;SDS011;26571;41.610;25.380;2023-12-20T13:39:15;8.63;;;5.57;;
40849;SDS011;26571;41.610;25.380;2023-12-20T13:41:41;3.75;;;2.63;;
40849;SDS011;26571;41.610;25.380;2023-12-20T13:44:07;3.38;;;1.13;;
40849;SDS011;26571;41.610;25.380;2023-12-20T13:46:33;9.48;;;6.40;;
40849;SDS011;26571;41.610;25.380;2023-12-20T13:48:58;12.70;;;9.82;;
40849;SDS011;26571;41.610;25.380;2023-12-20T13:51:24;4.15;;;2.10;;
40849;SDS011;26571;41.610;25.380;2023-12-20T13:53:50;1.73;;;1.27;;
40849;SDS011;26571;41.610;25.380;2023-12-20T13:56:15;2.80;;;1.65;;
40849;SDS011;26571;41.610;25.380;2023-12-20T13:58:41;4.13;;;2.10;;
40849;SDS011;26571;41.610;25.380;2023-12-20T14:01:09;1.33;;;1.23;;
40849;SDS011;26571;41.610;25.380;2023-12-20T14:03:36;3.13;;;2.83;;
40849;SDS011;26571;41.610;25.380;2023-12-20T14:06:01;1.10;;;1.10;;
40849;SDS011;26571;41.610;25.380;2023-12-20T14:08:27;2.03;;;1.92;;
40849;SDS011;26571;41.610;25.380;2023-12-20T14:10:52;2.17;;;2.08;;
40849;SDS011;26571;41.610;25.380;2023-12-20T14:13:18;2.00;;;1.40;;
40849;SDS011;26571;41.610;25.380;2023-12-20T14:15:46;2.90;;;2.70;;
40849;SDS011;26571;41.610;25.380;2023-12-20T14:18:12;1.42;;;1.33;;
40849;SDS011;26571;41.610;25.380;2023-12-20T14:20:40;0.98;;;0.90;;
40849;SDS011;26571;41.610;25.380;2023-12-20T14:25:34;2.28;;;2.08;;
40849;SDS011;26571;41.610;25.380;2023-12-20T14:28:02;2.30;;;2.05;;
40849;SDS011;26571;41.610;25.380;2023-12-20T14:30:28;2.53;;;2.28;;